Time;durP1;ratioP1;P1;durP2;ratioP2;P2;SDS_P1;SDS_P2;PMS_P1;PMS_P2;Temp;Humidity;BMP_temperature;BMP_pressure;BME280_temperature;BME280_humidity;BME280_pressure;Samples;Min_cycle;Max_cycle;Signal;HPM_P1;HPM_P2
2023/11/10 00:02:19;;;;;;;0.40;0.40;;;;;;;5.96;100.00;98590.69;5047838;28;20204;-70
2023/11/10 00:04:48;;;;;;;0.40;0.40;;;;;;;5.91;100.00;98584.78;5064911;28;20051;-71
2023/11/10 00:07:14;;;;;;;0.40;0.40;;;;;;;5.94;100.00;98589.88;5065373;28;20073;-70
2023/11/10 00:09:39;;;;;;;0.40;0.40;;;;;;;5.94;100.00;98583.00;5065427;28;20536;-70
2023/11/10 00:12:05;;;;;;;0.43;0.43;;;;;;;5.96;100.00;98590.69;5065690;28;20016;-70
2023/11/10 00:14:30;;;;;;;0.40;0.40;;;;;;;6.02;100.00;98580.25;5065544;28;20028;-70
2023/11/10 00:16:56;;;;;;;0.40;0.40;;;;;;;6.03;100.00;98581.13;5065376;28;20370;-70
2023/11/10 00:19:22;;;;;;;0.40;0.40;;;;;;;6.07;100.00;98585.38;5047363;28;20029;-70
2023/11/10 00:21:50;;;;;;;0.40;0.40;;;;;;;6.11;100.00;98583.56;5047294;28;20021;-70
2023/11/10 00:24:16;;;;;;;0.40;0.40;;;;;;;6.10;100.00;98589.63;5065095;28;20032;-70
2023/11/10 00:26:41;;;;;;;0.40;0.40;;;;;;;6.06;100.00;98594.84;5065419;28;20025;-71
2023/11/10 00:29:06;;;;;;;0.40;0.40;;;;;;;6.03;100.00;98594.00;5047219;28;20070;-71
2023/11/10 00:31:33;;;;;;;0.40;0.40;;;;;;;5.97;100.00;98587.25;5065228;28;20042;-70
2023/11/10 00:33:58;;;;;;;0.40;0.40;;;;;;;6.08;100.00;98607.69;5047634;28;20012;-70
2023/11/10 00:36:24;;;;;;;0.40;0.40;;;;;;;6.09;100.00;98601.66;5065142;28;20493;-71
2023/11/10 00:38:50;;;;;;;0.40;0.40;;;;;;;6.08;100.00;98610.25;5046769;28;20021;-71
2023/11/10 00:41:15;;;;;;;0.40;0.40;;;;;;;6.04;100.00;98606.88;5065336;28;20025;-72
2023/11/10 00:43:41;;;;;;;0.40;0.40;;;;;;;6.02;100.00;98612.94;5065024;28;20025;-71
2023/11/10 00:46:06;;;;;;;0.40;0.40;;;;;;;5.92;100.00;98601.94;5065112;28;20092;-72
2023/11/10 00:48:33;;;;;;;0.40;0.40;;;;;;;5.82;100.00;98609.84;5047316;28;20033;-71
2023/11/10 00:50:59;;;;;;;0.47;0.47;;;;;;;5.80;100.00;98614.16;5065022;28;20097;-71
2023/11/10 00:53:26;;;;;;;0.40;0.40;;;;;;;5.83;100.00;98615.84;5065036;28;20070;-71
2023/11/10 00:55:53;;;;;;;0.40;0.40;;;;;;;5.83;100.00;98610.69;5064904;28;20028;-71
2023/11/10 00:58:19;;;;;;;0.40;0.40;;;;;;;5.81;100.00;98600.38;5064951;28;20081;-71
2023/11/10 01:00:45;;;;;;;0.40;0.40;;;;;;;5.91;100.00;98606.22;5064835;28;20021;-72
2023/11/10 01:03:11;;;;;;;0.40;0.40;;;;;;;5.91;100.00;98597.66;5064948;28;20378;-71
2023/11/10 01:05:36;;;;;;;0.32;0.32;;;;;;;5.92;100.00;98597.66;5064658;28;20039;-73
2023/11/10 01:08:01;;;;;;;0.40;0.40;;;;;;;5.98;100.00;98593.22;5064701;28;20064;-73
2023/11/10 01:10:27;;;;;;;0.40;0.40;;;;;;;5.98;100.00;98588.09;5064790;28;20025;-73
2023/11/10 01:12:52;;;;;;;0.40;0.40;;;;;;;5.99;100.00;98589.78;5064682;28;20037;-73
2023/11/10 01:15:18;;;;;;;0.40;0.40;;;;;;;5.98;100.00;98580.34;5063636;28;20086;-73
2023/11/10 01:17:44;;;;;;;0.40;0.40;;;;;;;5.97;100.00;98573.50;5064691;28;20080;-73
2023/11/10 01:20:11;;;;;;;0.40;0.40;;;;;;;6.01;100.00;98580.28;5047497;28;20032;-72
2023/11/10 01:22:42;;;;;;;0.40;0.40;;;;;;;6.05;100.00;98582.81;5064903;28;20532;-70
2023/11/10 01:25:08;;;;;;;0.40;0.40;;;;;;;6.10;100.00;98585.31;5064344;28;20421;-69
2023/11/10 01:27:34;;;;;;;0.40;0.40;;;;;;;6.10;100.00;98576.75;5064834;28;20025;-70
2023/11/10 01:30:00;;;;;;;0.40;0.40;;;;;;;6.12;100.00;98568.09;5064785;28;20056;-70
2023/11/10 01:32:25;;;;;;;0.40;0.40;;;;;;;6.18;100.00;98575.69;5064764;28;20021;-69
2023/11/10 01:34:51;;;;;;;0.40;0.40;;;;;;;6.19;100.00;98571.41;5064715;28;20017;-70
2023/11/10 01:37:16;;;;;;;0.40;0.40;;;;;;;6.14;100.00;98571.50;5046474;28;20392;-69
2023/11/10 01:39:42;;;;;;;0.40;0.40;;;;;;;6.13;100.00;98579.25;5064501;28;20032;-69
2023/11/10 01:42:08;;;;;;;0.40;0.40;;;;;;;6.14;100.00;98576.66;5064453;28;20056;-69
2023/11/10 01:44:36;;;;;;;0.40;0.40;;;;;;;6.13;100.00;98580.09;5064614;28;20021;-70
2023/11/10 01:47:06;;;;;;;0.40;0.40;;;;;;;6.11;100.00;98581.84;5046500;28;20025;-70
2023/11/10 01:49:33;;;;;;;0.40;0.40;;;;;;;6.10;100.00;98577.59;5064919;28;20104;-70
2023/11/10 01:52:00;;;;;;;0.40;0.40;;;;;;;6.01;100.00;98563.13;5046499;28;20032;-71
2023/11/10 01:54:29;;;;;;;0.40;0.40;;;;;;;6.10;100.00;98574.16;5064135;28;20025;-70
2023/11/10 01:56:56;;;;;;;0.40;0.40;;;;;;;6.05;100.00;98575.06;5064489;28;20017;-70
2023/11/10 01:59:22;;;;;;;0.60;0.60;;;;;;;6.03;100.00;98571.69;5064563;28;20473;-70
2023/11/10 02:01:47;;;;;;;0.40;0.40;;;;;;;6.03;100.00;98575.97;5064417;28;20035;-70
2023/11/10 02:04:16;;;;;;;0.40;0.40;;;;;;;6.01;100.00;98580.28;5064251;28;20053;-69
2023/11/10 02:06:43;;;;;;;0.40;0.40;;;;;;;5.97;100.00;98571.78;5064129;28;20036;-71
2023/11/10 02:09:09;;;;;;;0.40;0.40;;;;;;;6.01;100.00;98573.41;5064617;28;20032;-71
2023/11/10 02:11:38;;;;;;;0.40;0.40;;;;;;;6.00;100.00;98573.44;5064191;28;20025;-72
2023/11/10 02:14:05;;;;;;;0.40;0.40;;;;;;;6.00;100.00;98570.88;5064318;28;20100;-70
2023/11/10 02:16:32;;;;;;;0.40;0.40;;;;;;;6.01;100.00;98570.00;5064478;28;20027;-71
2023/11/10 02:18:58;;;;;;;0.40;0.40;;;;;;;5.95;100.00;98566.69;5064104;28;20485;-71
2023/11/10 02:21:24;;;;;;;0.40;0.40;;;;;;;5.91;100.00;98559.88;5064148;28;20107;-71
2023/11/10 02:23:53;;;;;;;0.40;0.40;;;;;;;5.86;100.00;98553.97;5064040;28;20028;-71
2023/11/10 02:26:18;;;;;;;0.40;0.40;;;;;;;5.88;100.00;98547.03;5064310;28;20465;-71
2023/11/10 02:28:44;;;;;;;0.40;0.40;;;;;;;5.91;100.00;98559.88;5067676;28;20035;-72
2023/11/10 02:31:09;;;;;;;0.40;0.40;;;;;;;5.89;100.00;98555.63;5067724;28;20017;-71
2023/11/10 02:33:34;;;;;;;0.40;0.40;;;;;;;5.84;100.00;98550.56;5049560;28;20032;-71
2023/11/10 02:36:00;;;;;;;0.40;0.40;;;;;;;5.83;100.00;98546.31;5049547;28;20460;-71
2023/11/10 02:38:26;;;;;;;0.40;0.40;;;;;;;5.83;100.00;98546.31;5049900;28;20033;-71
2023/11/10 02:40:51;;;;;;;0.40;0.40;;;;;;;5.80;100.00;98548.91;5067366;28;20035;-71
2023/11/10 02:43:17;;;;;;;0.40;0.40;;;;;;;5.85;100.00;98547.09;5067343;28;20048;-71
2023/11/10 02:45:42;;;;;;;0.40;0.40;;;;;;;5.83;100.00;98536.00;5067562;28;20036;-71
2023/11/10 02:48:10;;;;;;;0.40;0.40;;;;;;;5.80;100.00;98531.75;5067407;28;20032;-69
2023/11/10 02:50:37;;;;;;;0.40;0.40;;;;;;;5.80;100.00;98536.91;5067615;28;20021;-70
2023/11/10 02:53:03;;;;;;;0.55;0.55;;;;;;;5.83;100.00;98538.59;5067189;28;20021;-71
2023/11/10 02:55:28;;;;;;;0.40;0.40;;;;;;;5.82;100.00;98535.16;5066973;28;20484;-70
2023/11/10 02:57:53;;;;;;;0.40;0.40;;;;;;;5.81;100.00;98530.03;5049116;28;20045;-70
2023/11/10 03:00:19;;;;;;;0.40;0.40;;;;;;;5.85;100.00;98523.94;5067103;28;20469;-70
2023/11/10 03:02:45;;;;;;;0.40;0.40;;;;;;;5.84;100.00;98519.66;5049194;28;20032;-71
2023/11/10 03:05:10;;;;;;;0.40;0.40;;;;;;;5.79;100.00;98503.44;5048999;28;20049;-70
2023/11/10 03:07:36;;;;;;;0.40;0.40;;;;;;;5.81;100.00;98517.97;5066931;28;20040;-71
2023/11/10 03:10:01;;;;;;;0.40;0.40;;;;;;;5.81;100.00;98517.97;5066983;28;20036;-71
2023/11/10 03:12:29;;;;;;;0.50;0.50;;;;;;;5.79;100.00;98522.34;5066975;28;20032;-70
2023/11/10 03:14:55;;;;;;;0.40;0.40;;;;;;;5.81;100.00;98530.03;5066510;28;20021;-70
2023/11/10 03:17:20;;;;;;;0.40;0.40;;;;;;;5.78;100.00;98520.63;5066916;28;20182;-70
2023/11/10 03:19:45;;;;;;;0.40;0.40;;;;;;;5.76;100.00;98518.97;5066712;28;20024;-70
2023/11/10 03:22:12;;;;;;;0.40;0.40;;;;;;;5.80;100.00;98526.59;5066860;28;20032;-70
2023/11/10 03:24:38;;;;;;;0.40;0.40;;;;;;;5.79;100.00;98519.75;5066457;28;20043;-70
2023/11/10 03:27:03;;;;;;;0.40;0.40;;;;;;;5.80;100.00;98525.75;5048718;28;20052;-70
2023/11/10 03:29:29;;;;;;;0.40;0.40;;;;;;;5.80;100.00;98525.75;5066536;28;20021;-70
2023/11/10 03:31:55;;;;;;;0.40;0.40;;;;;;;5.86;100.00;98533.38;5048427;28;20476;-70
2023/11/10 03:34:23;;;;;;;0.40;0.40;;;;;;;5.84;100.00;98522.25;5066523;28;20036;-70
2023/11/10 03:36:49;;;;;;;0.40;0.40;;;;;;;5.84;100.00;98519.66;5066324;28;20021;-70
2023/11/10 03:39:16;;;;;;;0.40;0.40;;;;;;;5.86;100.00;98525.66;5065257;28;20035;-70
2023/11/10 03:41:41;;;;;;;0.50;0.50;;;;;;;5.85;100.00;98517.94;5066469;28;20031;-70
2023/11/10 03:44:07;;;;;;;0.40;0.40;;;;;;;5.81;100.00;98517.97;5066398;28;20017;-71
2023/11/10 03:46:32;;;;;;;0.40;0.40;;;;;;;5.78;100.00;98509.50;5066187;28;20158;-71
2023/11/10 03:48:58;;;;;;;0.40;0.40;;;;;;;5.83;100.00;98515.41;5066224;28;20021;-71
2023/11/10 03:51:24;;;;;;;0.40;0.40;;;;;;;5.81;100.00;98519.72;5066145;28;20033;-71
2023/11/10 03:53:49;;;;;;;0.40;0.40;;;;;;;5.82;100.00;98517.13;5065932;28;20027;-70
2023/11/10 03:56:15;;;;;;;0.40;0.40;;;;;;;5.82;100.00;98516.25;5047983;28;20036;-71
2023/11/10 03:58:40;;;;;;;0.47;0.47;;;;;;;5.81;100.00;98512.00;5066030;28;20020;-71
2023/11/10 04:01:10;;;;;;;0.40;0.40;;;;;;;5.80;100.00;98511.16;5065776;28;20032;-70
2023/11/10 04:03:37;;;;;;;0.40;0.40;;;;;;;5.79;100.00;98513.75;5048016;28;20025;-72
2023/11/10 04:06:02;;;;;;;0.40;0.40;;;;;;;5.78;100.00;98514.63;5066588;28;20055;-71
2023/11/10 04:08:28;;;;;;;0.40;0.40;;;;;;;5.76;100.00;98511.25;5065904;28;20557;-72
2023/11/10 04:10:53;;;;;;;0.40;0.40;;;;;;;5.78;100.00;98514.63;5065631;28;20025;-71
2023/11/10 04:13:18;;;;;;;0.40;0.40;;;;;;;5.78;100.00;98512.06;5065586;28;20032;-71
2023/11/10 04:15:44;;;;;;;0.40;0.40;;;;;;;5.78;100.00;98512.06;5047584;28;20115;-71
2023/11/10 04:18:09;;;;;;;0.40;0.40;;;;;;;5.79;100.00;98508.59;5065612;28;20024;-71
2023/11/10 04:20:35;;;;;;;0.40;0.40;;;;;;;5.78;100.00;98494.88;5065593;28;20031;-71
2023/11/10 04:23:00;;;;;;;0.40;0.40;;;;;;;5.78;100.00;98491.47;5065657;28;20021;-71
2023/11/10 04:25:25;;;;;;;0.40;0.40;;;;;;;5.78;100.00;98491.47;5065114;28;20033;-71
2023/11/10 04:27:51;;;;;;;0.40;0.40;;;;;;;5.80;100.00;98490.53;5065697;28;20028;-71
2023/11/10 04:30:16;;;;;;;0.40;0.40;;;;;;;5.81;100.00;98489.66;5065311;28;20017;-69
2023/11/10 04:32:42;;;;;;;0.50;0.50;;;;;;;5.78;100.00;98482.00;5065306;28;20075;-70
2023/11/10 04:35:07;;;;;;;0.40;0.40;;;;;;;5.74;100.00;98464.06;5065189;28;20097;-71
2023/11/10 04:37:32;;;;;;;0.40;0.40;;;;;;;5.80;100.00;98476.81;5065342;28;20035;-70
2023/11/10 04:39:58;;;;;;;0.40;0.40;;;;;;;5.81;100.00;98469.06;5064961;28;20085;-70
2023/11/10 04:42:23;;;;;;;0.40;0.40;;;;;;;5.78;100.00;98463.13;5065360;28;20078;-70
2023/11/10 04:44:49;;;;;;;0.43;0.43;;;;;;;5.76;100.00;98452.00;5065139;28;20021;-69
2023/11/10 04:47:14;;;;;;;0.50;0.50;;;;;;;5.73;100.00;98452.94;5065017;28;20039;-70
2023/11/10 04:49:39;;;;;;;0.40;0.40;;;;;;;5.68;100.00;98447.88;5064995;28;20088;-70
2023/11/10 04:52:05;;;;;;;0.50;0.50;;;;;;;5.70;100.00;98447.84;5064950;28;20083;-70
2023/11/10 04:54:31;;;;;;;0.40;0.40;;;;;;;5.72;100.00;98451.22;5064954;28;20040;-70
2023/11/10 04:56:56;;;;;;;0.40;0.40;;;;;;;5.74;100.00;98449.47;5046986;28;20017;-70
2023/11/10 04:59:22;;;;;;;0.40;0.40;;;;;;;5.68;100.00;98455.59;5064970;28;20112;-71
2023/11/10 05:01:48;;;;;;;0.40;0.40;;;;;;;5.68;100.00;98459.91;5046987;28;20024;-71
2023/11/10 05:04:14;;;;;;;0.45;0.45;;;;;;;5.68;100.00;98471.06;5046694;28;20435;-71
2023/11/10 05:06:40;;;;;;;0.40;0.40;;;;;;;5.63;100.00;98454.84;5064709;28;20040;-70
2023/11/10 05:09:09;;;;;;;0.40;0.40;;;;;;;5.58;100.00;98454.94;5046652;28;20059;-73
2023/11/10 05:11:34;;;;;;;0.40;0.40;;;;;;;5.58;100.00;98464.38;5046863;28;20473;-73
2023/11/10 05:14:00;;;;;;;0.43;0.43;;;;;;;5.54;100.00;98457.59;5064849;28;20021;-71
2023/11/10 05:16:25;;;;;;;0.40;0.40;;;;;;;5.53;100.00;98459.31;5064708;28;20040;-72
2023/11/10 05:18:50;;;;;;;0.40;0.40;;;;;;;5.55;100.00;98465.28;5046785;28;20029;-72
2023/11/10 05:21:17;;;;;;;0.40;0.40;;;;;;;5.55;100.00;98456.72;5064481;28;20142;-71
2023/11/10 05:23:43;;;;;;;0.40;0.40;;;;;;;5.55;100.00;98461.84;5064368;28;20040;-73
2023/11/10 05:26:09;;;;;;;0.40;0.40;;;;;;;5.56;100.00;98460.97;5064393;28;20119;-73
2023/11/10 05:28:35;;;;;;;0.40;0.40;;;;;;;5.53;100.00;98456.72;5064420;28;20025;-72
2023/11/10 05:31:00;;;;;;;0.40;0.40;;;;;;;5.55;100.00;98456.72;5046745;28;20059;-71
2023/11/10 05:33:26;;;;;;;0.50;0.50;;;;;;;5.49;100.00;98456.81;5046671;28;20049;-74
2023/11/10 05:35:51;;;;;;;0.40;0.40;;;;;;;5.47;100.00;98451.72;5046405;28;20024;-74
2023/11/10 05:38:16;;;;;;;0.40;0.40;;;;;;;5.48;100.00;98452.56;5064343;28;20045;-74
2023/11/10 05:40:42;;;;;;;0.40;0.40;;;;;;;5.51;100.00;98452.50;5064702;28;20092;-75
2023/11/10 05:43:08;;;;;;;0.40;0.40;;;;;;;5.55;100.00;98455.00;5064489;28;20021;-73
2023/11/10 05:45:34;;;;;;;0.40;0.40;;;;;;;5.54;100.00;98448.13;5063258;28;20025;-74
2023/11/10 05:47:59;;;;;;;0.40;0.40;;;;;;;5.58;100.00;98461.78;5046758;28;20020;-73
2023/11/10 05:50:25;;;;;;;0.40;0.40;;;;;;;5.57;100.00;98454.97;5064607;28;20025;-74
2023/11/10 05:52:50;;;;;;;0.40;0.40;;;;;;;5.62;100.00;98463.44;5064428;28;20021;-75
2023/11/10 05:55:16;;;;;;;0.32;0.32;;;;;;;5.61;100.00;98459.16;5064273;28;20017;-74
2023/11/10 05:57:42;;;;;;;0.40;0.40;;;;;;;5.61;100.00;98450.59;5046124;28;20021;-74
2023/11/10 06:00:08;;;;;;;0.40;0.40;;;;;;;5.67;100.00;98461.59;5064596;28;20029;-74
2023/11/10 06:02:33;;;;;;;0.40;0.40;;;;;;;5.65;100.00;98463.38;5066473;28;20025;-75
2023/11/10 06:04:59;;;;;;;0.50;0.50;;;;;;;5.65;100.00;98459.97;5068003;28;21407;-75
2023/11/10 06:07:24;;;;;;;0.40;0.40;;;;;;;5.66;100.00;98459.06;5067867;28;20132;-76
2023/11/10 06:09:50;;;;;;;0.40;0.40;;;;;;;5.67;100.00;98463.34;5067981;28;20366;-75
2023/11/10 06:12:17;;;;;;;0.40;0.40;;;;;;;5.66;100.00;98470.22;5068077;28;20017;-75
2023/11/10 06:14:42;;;;;;;0.40;0.40;;;;;;;5.64;100.00;98466.81;5068076;28;20021;-74
2023/11/10 06:17:08;;;;;;;0.40;0.40;;;;;;;5.61;100.00;98469.47;5050063;28;20488;-75
2023/11/10 06:19:33;;;;;;;0.40;0.40;;;;;;;5.58;100.00;98469.50;5050062;28;20382;-74
2023/11/10 06:21:58;;;;;;;0.50;0.50;;;;;;;5.58;100.00;98466.94;5067922;28;20021;-75
2023/11/10 06:24:24;;;;;;;0.40;0.40;;;;;;;5.57;100.00;98462.69;5049667;28;20020;-74
2023/11/10 06:26:49;;;;;;;0.40;0.40;;;;;;;5.55;100.00;98467.00;5068581;28;20024;-75
2023/11/10 06:29:15;;;;;;;0.45;0.45;;;;;;;5.52;100.00;98467.06;5067783;28;20020;-75
2023/11/10 06:31:41;;;;;;;0.40;0.40;;;;;;;5.48;100.00;98455.16;5068013;28;20021;-76
2023/11/10 06:34:06;;;;;;;0.40;0.40;;;;;;;5.57;100.00;98478.94;5067775;28;20021;-75
2023/11/10 06:36:32;;;;;;;0.40;0.40;;;;;;;5.57;100.00;98472.97;5067745;28;20024;-75
2023/11/10 06:38:57;;;;;;;0.47;0.47;;;;;;;5.57;100.00;98472.97;5067595;28;20027;-75
2023/11/10 06:41:23;;;;;;;0.40;0.40;;;;;;;5.55;100.00;98467.00;5067303;28;20077;-76
2023/11/10 06:43:49;;;;;;;0.40;0.40;;;;;;;5.61;100.00;98471.22;5049564;28;20021;-76
2023/11/10 06:46:22;;;;;;;0.45;0.45;;;;;;;5.61;100.00;98472.03;5067285;28;20035;-77
2023/11/10 06:48:51;;;;;;;0.40;0.40;;;;;;;5.58;100.00;98467.81;5067484;28;20017;-76
2023/11/10 06:51:17;;;;;;;0.40;0.40;;;;;;;5.52;100.00;98465.34;5067423;28;20275;-76
2023/11/10 06:53:42;;;;;;;0.40;0.40;;;;;;;5.52;100.00;98467.91;5049033;28;20449;-76
2023/11/10 06:56:09;;;;;;;0.40;0.40;;;;;;;5.52;100.00;98467.06;5067100;28;20044;-75
2023/11/10 06:58:35;;;;;;;0.40;0.40;;;;;;;5.50;100.00;98467.09;5067264;28;20055;-76
2023/11/10 07:01:02;;;;;;;0.40;0.40;;;;;;;5.52;100.00;98477.34;5067070;28;20075;-75
2023/11/10 07:03:28;;;;;;;0.40;0.40;;;;;;;5.51;100.00;98466.22;5049142;28;20024;-75
2023/11/10 07:05:54;;;;;;;0.50;0.50;;;;;;;5.51;100.00;98470.53;5048750;28;20475;-75
2023/11/10 07:08:20;;;;;;;0.40;0.40;;;;;;;5.41;100.00;98468.13;5066847;28;20071;-75
2023/11/10 07:10:51;;;;;;;0.40;0.40;;;;;;;5.47;100.00;98480.03;5048807;28;20044;-74
2023/11/10 07:13:18;;;;;;;0.40;0.40;;;;;;;5.42;100.00;98476.69;5066795;28;20025;-75
2023/11/10 07:15:45;;;;;;;0.40;0.40;;;;;;;5.40;100.00;98479.28;5066803;28;20469;-75
2023/11/10 07:18:11;;;;;;;0.40;0.40;;;;;;;5.41;100.00;98482.72;5048965;28;20024;-75
2023/11/10 07:20:37;;;;;;;0.50;0.50;;;;;;;5.43;100.00;98491.25;5066943;28;20032;-75
2023/11/10 07:23:03;;;;;;;0.40;0.40;;;;;;;5.44;100.00;98490.38;5049080;28;20032;-75
2023/11/10 07:25:30;;;;;;;0.40;0.40;;;;;;;5.32;100.00;98470.84;5048543;28;20039;-75
2023/11/10 07:27:56;;;;;;;0.40;0.40;;;;;;;5.40;100.00;98488.75;5066759;28;20024;-75
2023/11/10 07:30:22;;;;;;;0.40;0.40;;;;;;;5.40;100.00;98483.59;5066620;28;20025;-74
2023/11/10 07:32:50;;;;;;;0.40;0.40;;;;;;;5.37;100.00;98487.06;5048454;28;20159;-74
2023/11/10 07:35:17;;;;;;;0.40;0.40;;;;;;;5.43;100.00;98504.97;5066648;28;20013;-73
2023/11/10 07:37:44;;;;;;;0.40;0.40;;;;;;;5.43;100.00;98502.38;5048402;28;20075;-73
2023/11/10 07:40:14;;;;;;;0.40;0.40;;;;;;;5.41;100.00;98498.16;5066260;28;20040;-73
2023/11/10 07:42:42;;;;;;;0.40;0.40;;;;;;;5.39;100.00;98495.59;5066427;28;20021;-73
2023/11/10 07:45:14;;;;;;;0.40;0.40;;;;;;;5.41;100.00;98508.44;5048279;28;20025;-73
2023/11/10 07:47:43;;;;;;;0.40;0.40;;;;;;;5.42;100.00;98511.00;5066484;28;20031;-73
2023/11/10 07:50:09;;;;;;;0.40;0.40;;;;;;;5.40;100.00;98499.88;5066189;28;20037;-73
2023/11/10 07:52:39;;;;;;;0.40;0.40;;;;;;;5.39;100.00;98505.91;5048237;28;20070;-72
2023/11/10 07:55:05;;;;;;;0.40;0.40;;;;;;;5.39;100.00;98503.31;5048193;28;20085;-73
2023/11/10 07:57:32;;;;;;;0.40;0.40;;;;;;;5.41;100.00;98508.44;5048130;28;20048;-72
2023/11/10 07:59:58;;;;;;;0.40;0.40;;;;;;;5.41;100.00;98504.16;5066121;28;20378;-72
2023/11/10 08:02:23;;;;;;;0.40;0.40;;;;;;;5.41;100.00;98511.03;5065978;28;20033;-73
2023/11/10 08:04:49;;;;;;;0.40;0.40;;;;;;;5.37;100.00;98507.66;5047702;28;20036;-73
2023/11/10 08:07:14;;;;;;;0.50;0.50;;;;;;;5.36;100.00;98503.38;5047878;28;20114;-73
2023/11/10 08:09:40;;;;;;;0.40;0.40;;;;;;;5.29;100.00;98505.22;5047843;28;20025;-73
2023/11/10 08:12:05;;;;;;;0.40;0.40;;;;;;;5.30;100.00;98513.78;5048005;28;20362;-73
2023/11/10 08:14:30;;;;;;;0.43;0.43;;;;;;;5.32;100.00;98517.16;5047950;28;20039;-73
2023/11/10 08:16:57;;;;;;;0.40;0.40;;;;;;;5.32;100.00;98506.88;5065644;28;20021;-74
2023/11/10 08:19:22;;;;;;;0.40;0.40;;;;;;;5.31;100.00;98507.75;5047658;28;20028;-75
2023/11/10 08:21:48;;;;;;;0.50;0.50;;;;;;;5.32;100.00;98502.59;5065702;28;20027;-74
2023/11/10 08:24:14;;;;;;;0.40;0.40;;;;;;;5.36;100.00;98507.66;5064865;28;20029;-74
2023/11/10 08:26:39;;;;;;;0.40;0.40;;;;;;;5.41;100.00;98517.03;5065618;28;20029;-74
2023/11/10 08:29:04;;;;;;;0.40;0.40;;;;;;;5.45;100.00;98516.09;5047681;28;20032;-73
2023/11/10 08:31:30;;;;;;;0.45;0.45;;;;;;;5.50;100.00;98507.41;5065642;28;20021;-73
2023/11/10 08:33:55;;;;;;;0.40;0.40;;;;;;;5.52;100.00;98506.53;5065488;28;20067;-73
2023/11/10 08:36:22;;;;;;;0.40;0.40;;;;;;;5.56;100.00;98513.31;5065490;28;20032;-72
2023/11/10 08:38:48;;;;;;;0.40;0.40;;;;;;;5.56;100.00;98512.44;5047410;28;20025;-74
2023/11/10 08:41:14;;;;;;;0.40;0.40;;;;;;;5.59;100.00;98509.84;5047335;28;20074;-73
2023/11/10 08:43:40;;;;;;;0.40;0.40;;;;;;;5.61;100.00;98509.81;5065318;28;20033;-74
2023/11/10 08:46:07;;;;;;;0.40;0.40;;;;;;;5.65;100.00;98509.72;5047262;28;20090;-74
2023/11/10 08:48:32;;;;;;;0.40;0.40;;;;;;;5.68;100.00;98503.66;5065248;28;20032;-74
2023/11/10 08:50:58;;;;;;;0.40;0.40;;;;;;;5.76;100.00;98508.66;5047229;28;20024;-74
2023/11/10 08:53:23;;;;;;;0.40;0.40;;;;;;;5.75;100.00;98502.66;5065107;28;20092;-74
2023/11/10 08:55:49;;;;;;;0.40;0.40;;;;;;;5.74;100.00;98500.09;5046917;28;20027;-74
2023/11/10 08:58:14;;;;;;;0.40;0.40;;;;;;;5.69;100.00;98477.88;5065332;28;20025;-74
2023/11/10 09:00:40;;;;;;;0.40;0.40;;;;;;;5.78;100.00;98492.28;5047272;28;20032;-74
2023/11/10 09:03:06;;;;;;;0.40;0.40;;;;;;;5.76;100.00;98495.78;5047093;28;20025;-74
2023/11/10 09:05:31;;;;;;;0.40;0.40;;;;;;;5.68;100.00;98471.06;5065298;28;20373;-75
2023/11/10 09:07:57;;;;;;;0.40;0.40;;;;;;;5.82;100.00;98493.09;5046920;28;20045;-74
2023/11/10 09:10:23;;;;;;;0.40;0.40;;;;;;;5.78;100.00;98484.56;5064713;28;20122;-73
2023/11/10 09:12:49;;;;;;;0.35;0.35;;;;;;;5.85;100.00;98494.78;5046774;28;20366;-74
2023/11/10 09:15:14;;;;;;;0.40;0.40;;;;;;;5.87;100.00;98496.44;5046911;28;20047;-74
2023/11/10 09:17:41;;;;;;;0.40;0.40;;;;;;;5.86;100.00;98499.03;5064992;28;20031;-74
2023/11/10 09:20:07;;;;;;;0.50;0.50;;;;;;;5.85;100.00;98498.19;5064807;28;20051;-74
2023/11/10 09:22:35;;;;;;;0.40;0.40;;;;;;;5.87;100.00;98493.00;5047172;28;20021;-73
2023/11/10 09:25:01;;;;;;;0.40;0.40;;;;;;;5.82;100.00;98487.94;5046437;28;20021;-73
2023/11/10 09:27:27;;;;;;;0.40;0.40;;;;;;;5.83;100.00;98494.81;5046735;28;20093;-73
2023/11/10 09:29:52;;;;;;;0.40;0.40;;;;;;;5.86;100.00;98493.88;5064811;28;20025;-73
2023/11/10 09:32:18;;;;;;;0.50;0.50;;;;;;;5.87;100.00;98499.00;5064724;28;20021;-73
2023/11/10 09:34:43;;;;;;;0.40;0.40;;;;;;;5.89;100.00;98494.69;5064909;28;20024;-73
2023/11/10 09:37:09;;;;;;;0.40;0.40;;;;;;;5.91;100.00;98490.31;5066059;28;20116;-73
2023/11/10 09:39:34;;;;;;;0.40;0.40;;;;;;;5.94;100.00;98487.69;5068598;28;20056;-72
2023/11/10 09:42:07;;;;;;;0.40;0.40;;;;;;;5.92;100.00;98488.59;5068776;28;20067;-73
2023/11/10 09:44:53;;;;;;;0.57;0.57;;;;;;;5.90;100.00;98487.78;5068786;28;20080;-74
2023/11/10 09:47:22;;;;;;;0.40;0.40;;;;;;;5.91;100.00;98479.19;5068733;28;20135;-72
2023/11/10 09:49:49;;;;;;;0.40;0.40;;;;;;;5.93;100.00;98487.72;5068665;28;20025;-73
2023/11/10 09:52:16;;;;;;;0.40;0.40;;;;;;;5.99;100.00;98485.00;5068574;28;20025;-73
2023/11/10 09:54:45;;;;;;;0.40;0.40;;;;;;;6.03;100.00;98490.97;5068389;28;20100;-72
2023/11/10 09:57:12;;;;;;;0.50;0.50;;;;;;;5.99;100.00;98469.56;5068435;28;20021;-74
2023/11/10 09:59:39;;;;;;;0.40;0.40;;;;;;;6.07;100.00;98475.44;5068337;28;20039;-73
2023/11/10 10:02:05;;;;;;;0.40;0.40;;;;;;;6.07;100.00;98477.19;5068366;28;20036;-73
2023/11/10 10:04:30;;;;;;;0.40;0.40;;;;;;;6.07;100.00;98466.88;5068294;28;20025;-73
2023/11/10 10:06:57;;;;;;;0.40;0.40;;;;;;;6.07;100.00;98479.75;5049892;28;20025;-73
2023/11/10 10:09:26;;;;;;;0.40;0.40;;;;;;;6.05;100.00;98468.63;5068039;28;20025;-73
2023/11/10 10:11:54;;;;;;;0.40;0.40;;;;;;;6.06;100.00;98472.88;5068387;28;20031;-73
2023/11/10 10:14:19;;;;;;;0.43;0.43;;;;;;;6.08;100.00;98471.13;5050157;28;20017;-73
2023/11/10 10:16:56;;;;;;;0.47;0.47;;;;;;;6.11;100.00;98473.66;5067930;28;20436;-73
2023/11/10 10:19:22;;;;;;;0.40;0.40;;;;;;;6.09;100.00;98453.97;5068243;28;20028;-75
2023/11/10 10:21:47;;;;;;;0.40;0.40;;;;;;;6.17;100.00;98478.66;5049992;28;20025;-74
2023/11/10 10:24:13;;;;;;;0.40;0.40;;;;;;;6.11;100.00;98450.47;5067634;28;20025;-73
2023/11/10 10:26:38;;;;;;;0.40;0.40;;;;;;;6.18;100.00;98458.91;5067914;28;20027;-74
2023/11/10 10:29:05;;;;;;;0.40;0.40;;;;;;;6.16;100.00;98450.34;5067942;28;20084;-74
2023/11/10 10:31:31;;;;;;;0.40;0.40;;;;;;;6.17;100.00;98446.88;5067782;28;20025;-73
2023/11/10 10:33:56;;;;;;;0.40;0.40;;;;;;;6.22;100.00;98444.22;5067718;28;20017;-75
2023/11/10 10:36:22;;;;;;;0.40;0.40;;;;;;;6.25;100.00;98446.72;5067627;28;20074;-74
2023/11/10 10:38:53;;;;;;;0.40;0.40;;;;;;;6.26;100.00;98445.84;5067663;28;20033;-73
2023/11/10 10:41:19;;;;;;;0.50;0.50;;;;;;;6.31;100.00;98444.03;5067546;28;20060;-73
2023/11/10 10:43:50;;;;;;;0.40;0.40;;;;;;;6.33;100.00;98439.66;5067429;28;20036;-73
2023/11/10 10:46:19;;;;;;;0.40;0.40;;;;;;;6.29;100.00;98433.72;5067468;28;20166;-73
2023/11/10 10:48:49;;;;;;;0.40;0.40;;;;;;;6.31;100.00;98429.41;5067040;28;20052;-71
2023/11/10 10:51:17;;;;;;;0.40;0.40;;;;;;;6.34;100.00;98436.22;5049543;28;20025;-72
2023/11/10 10:53:44;;;;;;;0.40;0.40;;;;;;;6.30;100.00;98429.44;5067586;28;20077;-72
2023/11/10 10:56:12;;;;;;;0.40;0.40;;;;;;;6.31;100.00;98429.41;5067315;28;20067;-71
2023/11/10 10:58:38;;;;;;;0.40;0.40;;;;;;;6.30;100.00;98426.84;5067364;28;20046;-71
2023/11/10 11:01:07;;;;;;;0.40;0.40;;;;;;;6.29;100.00;98426.00;5067436;28;20049;-73
2023/11/10 11:04:08;;;;;;;0.40;0.40;;;;;;;6.33;100.00;98429.34;5067397;28;20032;-73
2023/11/10 11:06:39;;;;;;;0.40;0.40;;;;;;;6.34;100.00;98433.66;5036149;28;20412;-71
2023/11/10 11:09:46;;;;;;;0.50;0.50;;;;;;;6.36;100.00;98421.56;5067205;28;20040;-73
2023/11/10 11:12:30;;;;;;;0.40;0.40;;;;;;;6.38;100.00;98422.38;5024893;28;20045;-71
2023/11/10 11:15:05;;;;;;;0.40;0.40;;;;;;;6.37;100.00;98409.53;5008521;28;20033;-72
2023/11/10 11:18:15;;;;;;;0.40;0.40;;;;;;;6.36;100.00;98416.41;5025162;28;20037;-72
2023/11/10 11:20:42;;;;;;;0.40;0.40;;;;;;;6.38;100.00;98417.22;5022912;28;20061;-72
2023/11/10 11:23:08;;;;;;;0.40;0.40;;;;;;;6.40;100.00;98406.88;5024855;28;20049;-72
2023/11/10 11:25:33;;;;;;;0.40;0.40;;;;;;;6.47;100.00;98410.16;5024400;28;20033;-71
2023/11/10 11:27:59;;;;;;;0.40;0.40;;;;;;;6.48;100.00;98414.41;5024767;28;20028;-73
2023/11/10 11:30:45;;;;;;;0.40;0.40;;;;;;;6.48;100.00;98414.41;5024639;28;20057;-72
2023/11/10 11:33:10;;;;;;;0.40;0.40;;;;;;;6.48;100.00;98411.84;5024485;28;20034;-71